sensor_id;sensor_type;location;lat;lon;timestamp;pressure;altitude;pressure_sealevel;temperature;humidity
50250;BME280;36133;42.522;27.456;2023-04-21T00:02:22;100893.56;;;20.38;39.69
50250;BME280;36133;42.522;27.456;2023-04-21T00:04:48;100766.56;;;19.01;41.05
50250;BME280;36133;42.522;27.456;2023-04-21T00:07:15;100837.09;;;19.63;40.69
50250;BME280;36133;42.522;27.456;2023-04-21T00:09:41;100892.13;;;19.90;40.80
50250;BME280;36133;42.522;27.456;2023-04-21T00:12:07;100876.28;;;19.92;40.66
50250;BME280;36133;42.522;27.456;2023-04-21T00:14:33;100809.47;;;19.13;41.42
50250;BME280;36133;42.522;27.456;2023-04-21T00:16:59;100783.66;;;19.20;40.82
50250;BME280;36133;42.522;27.456;2023-04-21T00:19:25;100726.53;;;18.72;40.91
50250;BME280;36133;42.522;27.456;2023-04-21T00:21:50;100730.69;;;18.74;41.01
50250;BME280;36133;42.522;27.456;2023-04-21T00:24:16;100731.75;;;18.85;40.81
50250;BME280;36133;42.522;27.456;2023-04-21T00:26:42;100895.78;;;19.96;40.87
50250;BME280;36133;42.522;27.456;2023-04-21T00:29:07;100849.88;;;19.34;41.82
50250;BME280;36133;42.522;27.456;2023-04-21T00:31:33;100890.84;;;19.41;42.24
50250;BME280;36133;42.522;27.456;2023-04-21T00:33:58;100898.00;;;19.07;43.36
50250;BME280;36133;42.522;27.456;2023-04-21T00:36:24;100899.00;;;17.75;46.55
50250;BME280;36133;42.522;27.456;2023-04-21T00:38:52;100623.56;;;15.11;49.32
50250;BME280;36133;42.522;27.456;2023-04-21T00:41:18;100843.56;;;16.58;49.35
50250;BME280;36133;42.522;27.456;2023-04-21T00:44:03;100877.91;;;16.91;49.80
50250;BME280;36133;42.522;27.456;2023-04-21T00:46:29;100717.28;;;15.15;51.86
50250;BME280;36133;42.522;27.456;2023-04-21T00:48:54;100873.97;;;16.05;53.30
50250;BME280;36133;42.522;27.456;2023-04-21T00:51:20;100863.50;;;15.71;54.87
50250;BME280;36133;42.522;27.456;2023-04-21T00:53:46;100861.88;;;15.95;54.91
50250;BME280;36133;42.522;27.456;2023-04-21T00:56:11;100868.34;;;15.56;57.13
50250;BME280;36133;42.522;27.456;2023-04-21T00:58:41;100861.75;;;15.32;58.50
50250;BME280;36133;42.522;27.456;2023-04-21T01:01:06;100864.66;;;15.43;59.10
50250;BME280;36133;42.522;27.456;2023-04-21T01:03:32;100719.31;;;14.75;57.50
50250;BME280;36133;42.522;27.456;2023-04-21T01:05:58;100859.56;;;15.98;56.91
50250;BME280;36133;42.522;27.456;2023-04-21T01:08:23;100713.34;;;15.42;55.83
50250;BME280;36133;42.522;27.456;2023-04-21T01:10:51;100854.09;;;15.98;56.50
50250;BME280;36133;42.522;27.456;2023-04-21T01:13:19;100825.56;;;16.57;53.77
50250;BME280;36133;42.522;27.456;2023-04-21T01:15:47;100849.09;;;15.95;54.73
50250;BME280;36133;42.522;27.456;2023-04-21T01:18:12;100808.06;;;16.22;53.79
50250;BME280;36133;42.522;27.456;2023-04-21T01:20:39;100753.44;;;15.60;54.79
50250;BME280;36133;42.522;27.456;2023-04-21T01:23:05;100654.69;;;14.77;55.35
50250;BME280;36133;42.522;27.456;2023-04-21T01:25:31;100808.66;;;15.67;55.73
50250;BME280;36133;42.522;27.456;2023-04-21T01:27:57;100843.94;;;15.36;57.33
50250;BME280;36133;42.522;27.456;2023-04-21T01:30:23;100839.06;;;15.64;57.76
50250;BME280;36133;42.522;27.456;2023-04-21T01:32:49;100821.34;;;15.42;57.93
50250;BME280;36133;42.522;27.456;2023-04-21T01:35:14;100834.72;;;15.43;58.90
50250;BME280;36133;42.522;27.456;2023-04-21T01:37:40;100832.78;;;15.50;58.79
50250;BME280;36133;42.522;27.456;2023-04-21T01:40:07;100732.78;;;14.50;59.98
50250;BME280;36133;42.522;27.456;2023-04-21T01:42:35;100828.16;;;15.58;60.04
50250;BME280;36133;42.522;27.456;2023-04-21T01:45:02;100794.56;;;15.39;59.08
50250;BME280;36133;42.522;27.456;2023-04-21T01:47:28;100826.50;;;15.63;59.47
50250;BME280;36133;42.522;27.456;2023-04-21T01:49:54;100829.06;;;15.38;60.16
50250;BME280;36133;42.522;27.456;2023-04-21T01:52:19;100707.91;;;15.04;58.94
50250;BME280;36133;42.522;27.456;2023-04-21T01:54:46;100614.69;;;14.52;59.04
50250;BME280;36133;42.522;27.456;2023-04-21T01:57:11;100817.03;;;15.97;58.76
50250;BME280;36133;42.522;27.456;2023-04-21T01:59:37;100805.25;;;15.34;59.78
50250;BME280;36133;42.522;27.456;2023-04-21T02:02:03;100671.56;;;15.30;57.71
50250;BME280;36133;42.522;27.456;2023-04-21T02:04:29;100695.53;;;15.78;57.21
50250;BME280;36133;42.522;27.456;2023-04-21T02:06:55;100714.50;;;15.60;57.80
50250;BME280;36133;42.522;27.456;2023-04-21T02:09:20;100687.59;;;15.38;58.48
50250;BME280;36133;42.522;27.456;2023-04-21T02:11:45;100817.84;;;15.73;59.76
50250;BME280;36133;42.522;27.456;2023-04-21T02:14:11;100809.28;;;16.01;58.70
50250;BME280;36133;42.522;27.456;2023-04-21T02:16:37;100762.28;;;16.12;57.18
50250;BME280;36133;42.522;27.456;2023-04-21T02:19:03;100535.72;;;14.47;56.64
50250;BME280;36133;42.522;27.456;2023-04-21T02:21:31;100836.53;;;16.26;57.36
50250;BME280;36133;42.522;27.456;2023-04-21T02:23:57;100818.19;;;16.15;57.51
50250;BME280;36133;42.522;27.456;2023-04-21T02:26:22;100799.50;;;15.93;56.63
50250;BME280;36133;42.522;27.456;2023-04-21T02:28:48;100761.94;;;16.27;56.15
50250;BME280;36133;42.522;27.456;2023-04-21T02:31:15;100820.56;;;16.54;55.25
50250;BME280;36133;42.522;27.456;2023-04-21T02:33:40;100756.16;;;15.60;56.78
50250;BME280;36133;42.522;27.456;2023-04-21T02:36:06;100775.97;;;16.49;54.67
50250;BME280;36133;42.522;27.456;2023-04-21T02:38:32;100798.47;;;16.62;55.00
50250;BME280;36133;42.522;27.456;2023-04-21T02:40:57;100803.81;;;17.31;52.96
50250;BME280;36133;42.522;27.456;2023-04-21T02:43:23;100812.31;;;16.11;56.16
50250;BME280;36133;42.522;27.456;2023-04-21T02:45:49;100708.34;;;15.71;55.41
50250;BME280;36133;42.522;27.456;2023-04-21T02:48:15;100743.78;;;15.64;55.59
50250;BME280;36133;42.522;27.456;2023-04-21T02:50:41;100808.47;;;16.50;55.30
50250;BME280;36133;42.522;27.456;2023-04-21T02:53:07;100799.59;;;16.55;54.20
50250;BME280;36133;42.522;27.456;2023-04-21T02:55:33;100806.22;;;15.91;55.79
50250;BME280;36133;42.522;27.456;2023-04-21T02:57:59;100782.81;;;15.83;55.60
50250;BME280;36133;42.522;27.456;2023-04-21T03:00:25;100636.56;;;15.09;55.57
50250;BME280;36133;42.522;27.456;2023-04-21T03:02:51;100775.63;;;15.50;56.50
50250;BME280;36133;42.522;27.456;2023-04-21T03:05:17;100733.69;;;15.71;55.45
50250;BME280;36133;42.522;27.456;2023-04-21T03:07:46;100431.56;;;13.19;56.73
50250;BME280;36133;42.522;27.456;2023-04-21T03:10:11;100322.19;;;12.21;58.15
50250;BME280;36133;42.522;27.456;2023-04-21T03:12:37;100684.19;;;15.49;55.40
50250;BME280;36133;42.522;27.456;2023-04-21T03:15:03;100576.38;;;14.67;55.01
50250;BME280;36133;42.522;27.456;2023-04-21T03:17:28;100696.13;;;14.72;57.02
50250;BME280;36133;42.522;27.456;2023-04-21T03:19:54;100811.78;;;16.02;55.10
50250;BME280;36133;42.522;27.456;2023-04-21T03:22:20;100708.88;;;14.65;57.18
50250;BME280;36133;42.522;27.456;2023-04-21T03:24:45;100729.88;;;14.31;59.25
50250;BME280;36133;42.522;27.456;2023-04-21T03:27:11;100768.28;;;14.28;60.57
50250;BME280;36133;42.522;27.456;2023-04-21T03:29:36;100807.34;;;14.14;61.42
50250;BME280;36133;42.522;27.456;2023-04-21T03:32:02;100805.09;;;14.44;60.56
50250;BME280;36133;42.522;27.456;2023-04-21T03:34:28;100756.78;;;14.66;59.46
50250;BME280;36133;42.522;27.456;2023-04-21T03:36:53;100818.84;;;14.10;62.03
50250;BME280;36133;42.522;27.456;2023-04-21T03:39:20;100512.25;;;12.97;60.40
50250;BME280;36133;42.522;27.456;2023-04-21T03:41:46;100512.22;;;12.84;60.54
50250;BME280;36133;42.522;27.456;2023-04-21T03:44:11;100834.28;;;14.75;60.53
50250;BME280;36133;42.522;27.456;2023-04-21T03:46:37;100805.19;;;14.89;61.01
50250;BME280;36133;42.522;27.456;2023-04-21T03:49:02;100809.06;;;15.71;58.79
50250;BME280;36133;42.522;27.456;2023-04-21T03:51:28;100644.84;;;14.24;60.44
50250;BME280;36133;42.522;27.456;2023-04-21T03:53:54;100819.44;;;15.42;60.21
50250;BME280;36133;42.522;27.456;2023-04-21T03:56:20;100755.63;;;14.93;59.82
50250;BME280;36133;42.522;27.456;2023-04-21T03:58:45;100724.53;;;14.83;60.23
50250;BME280;36133;42.522;27.456;2023-04-21T04:01:11;100730.00;;;14.70;60.34
50250;BME280;36133;42.522;27.456;2023-04-21T04:03:36;100524.97;;;13.30;60.28
50250;BME280;36133;42.522;27.456;2023-04-21T04:06:02;100315.75;;;12.55;58.43
50250;BME280;36133;42.522;27.456;2023-04-21T04:08:29;100834.03;;;16.24;57.22
50250;BME280;36133;42.522;27.456;2023-04-21T04:10:55;100611.50;;;14.69;57.56
50250;BME280;36133;42.522;27.456;2023-04-21T04:13:21;100823.63;;;16.64;54.76
50250;BME280;36133;42.522;27.456;2023-04-21T04:15:47;100782.53;;;15.60;56.53
50250;BME280;36133;42.522;27.456;2023-04-21T04:18:12;100764.50;;;15.20;57.47
50250;BME280;36133;42.522;27.456;2023-04-21T04:20:38;100753.34;;;15.73;55.75
50250;BME280;36133;42.522;27.456;2023-04-21T04:23:06;100428.53;;;14.05;55.07
50250;BME280;36133;42.522;27.456;2023-04-21T04:25:33;100730.53;;;15.36;56.94
50250;BME280;36133;42.522;27.456;2023-04-21T04:27:58;100578.63;;;14.25;56.67
50250;BME280;36133;42.522;27.456;2023-04-21T04:30:24;100652.78;;;14.32;57.65
50250;BME280;36133;42.522;27.456;2023-04-21T04:32:52;100774.63;;;15.51;57.43
50250;BME280;36133;42.522;27.456;2023-04-21T04:35:17;100671.44;;;15.18;56.09
50250;BME280;36133;42.522;27.456;2023-04-21T04:37:43;100840.75;;;17.33;53.85
50250;BME280;36133;42.522;27.456;2023-04-21T04:40:10;100846.72;;;17.23;54.22
50250;BME280;36133;42.522;27.456;2023-04-21T04:42:40;100695.72;;;16.63;52.97
50250;BME280;36133;42.522;27.456;2023-04-21T04:45:06;100488.91;;;15.51;52.80
50250;BME280;36133;42.522;27.456;2023-04-21T04:47:36;100848.47;;;16.99;54.66
50250;BME280;36133;42.522;27.456;2023-04-21T04:50:03;100720.25;;;16.01;54.12
50250;BME280;36133;42.522;27.456;2023-04-21T04:52:28;100825.66;;;17.12;53.90
50250;BME280;36133;42.522;27.456;2023-04-21T04:54:54;100846.84;;;18.49;50.83
50250;BME280;36133;42.522;27.456;2023-04-21T04:57:20;100718.59;;;18.35;49.23
50250;BME280;36133;42.522;27.456;2023-04-21T04:59:45;100853.16;;;18.96;49.57
50250;BME280;36133;42.522;27.456;2023-04-21T05:02:11;100830.34;;;19.02;49.16
50250;BME280;36133;42.522;27.456;2023-04-21T05:04:37;100820.97;;;19.78;47.60
50250;BME280;36133;42.522;27.456;2023-04-21T05:07:03;100625.88;;;18.57;47.04
50250;BME280;36133;42.522;27.456;2023-04-21T05:09:30;100807.31;;;20.45;45.59
50250;BME280;36133;42.522;27.456;2023-04-21T05:11:56;100818.13;;;20.35;45.30
50250;BME280;36133;42.522;27.456;2023-04-21T05:14:21;100779.63;;;20.47;44.69
50250;BME280;36133;42.522;27.456;2023-04-21T05:16:47;100858.97;;;19.23;48.15
50250;BME280;36133;42.522;27.456;2023-04-21T05:19:12;100859.72;;;19.47;47.62
50250;BME280;36133;42.522;27.456;2023-04-21T05:21:38;100857.09;;;19.64;47.92
50250;BME280;36133;42.522;27.456;2023-04-21T05:24:04;100629.94;;;19.12;46.12
50250;BME280;36133;42.522;27.456;2023-04-21T05:26:29;100679.63;;;18.28;47.97
50250;BME280;36133;42.522;27.456;2023-04-21T05:28:56;100860.75;;;19.17;48.51
50250;BME280;36133;42.522;27.456;2023-04-21T05:31:22;100841.47;;;18.19;50.57
50250;BME280;36133;42.522;27.456;2023-04-21T05:33:48;100787.69;;;17.59;51.26
50250;BME280;36133;42.522;27.456;2023-04-21T05:36:14;100768.53;;;17.77;51.22
50250;BME280;36133;42.522;27.456;2023-04-21T05:38:40;100768.03;;;17.39;52.11
50250;BME280;36133;42.522;27.456;2023-04-21T05:41:05;100844.19;;;17.89;52.07
50250;BME280;36133;42.522;27.456;2023-04-21T05:43:31;100506.16;;;16.37;50.46
50250;BME280;36133;42.522;27.456;2023-04-21T05:46:07;100853.38;;;18.59;50.55
50250;BME280;36133;42.522;27.456;2023-04-21T05:48:33;100857.31;;;17.32;53.78
50250;BME280;36133;42.522;27.456;2023-04-21T05:51:12;100476.00;;;14.72;54.17
50250;BME280;36133;42.522;27.456;2023-04-21T05:53:38;100717.25;;;16.89;52.96
50250;BME280;36133;42.522;27.456;2023-04-21T05:56:04;100850.72;;;17.57;53.69
50250;BME280;36133;42.522;27.456;2023-04-21T05:58:30;100849.28;;;17.37;54.76
50250;BME280;36133;42.522;27.456;2023-04-21T06:00:55;100674.59;;;16.40;54.50
50250;BME280;36133;42.522;27.456;2023-04-21T06:03:21;100756.84;;;16.92;54.47
50250;BME280;36133;42.522;27.456;2023-04-21T06:05:51;100793.72;;;17.31;53.98
50250;BME280;36133;42.522;27.456;2023-04-21T06:08:17;100827.97;;;18.82;51.14
50250;BME280;36133;42.522;27.456;2023-04-21T06:10:42;100854.97;;;19.54;49.51
50250;BME280;36133;42.522;27.456;2023-04-21T06:13:08;100739.41;;;20.91;45.38
50250;BME280;36133;42.522;27.456;2023-04-21T06:15:33;100770.34;;;22.06;42.42
50250;BME280;36133;42.522;27.456;2023-04-21T06:17:59;100830.25;;;23.88;40.13
50250;BME280;36133;42.522;27.456;2023-04-21T06:20:24;100835.97;;;23.61;40.23
50250;BME280;36133;42.522;27.456;2023-04-21T06:22:51;100736.88;;;21.87;41.97
50250;BME280;36133;42.522;27.456;2023-04-21T06:25:16;100845.09;;;21.16;44.25
50250;BME280;36133;42.522;27.456;2023-04-21T06:27:43;100755.72;;;19.92;45.97
50250;BME280;36133;42.522;27.456;2023-04-21T06:30:12;100560.41;;;18.39;46.69
50250;BME280;36133;42.522;27.456;2023-04-21T06:32:38;100833.19;;;20.50;45.47
50250;BME280;36133;42.522;27.456;2023-04-21T06:35:04;100672.84;;;18.66;47.40
50250;BME280;36133;42.522;27.456;2023-04-21T06:37:29;100544.84;;;18.80;45.05
50250;BME280;36133;42.522;27.456;2023-04-21T06:39:55;100689.66;;;18.86;47.35
50250;BME280;36133;42.522;27.456;2023-04-21T06:42:21;100854.13;;;20.10;47.11
50250;BME280;36133;42.522;27.456;2023-04-21T06:45:07;100338.47;;;17.92;44.52
50250;BME280;36133;42.522;27.456;2023-04-21T06:47:33;100652.72;;;19.00;45.76
50250;BME280;36133;42.522;27.456;2023-04-21T06:50:05;100481.03;;;18.62;44.73
50250;BME280;36133;42.522;27.456;2023-04-21T06:52:34;100442.88;;;18.39;44.93
50250;BME280;36133;42.522;27.456;2023-04-21T06:54:59;100674.75;;;20.78;43.07
50250;BME280;36133;42.522;27.456;2023-04-21T06:57:25;100673.41;;;20.81;43.18
50250;BME280;36133;42.522;27.456;2023-04-21T06:59:54;100431.63;;;18.81;44.04
50250;BME280;36133;42.522;27.456;2023-04-21T07:02:20;100869.66;;;20.67;45.52
50250;BME280;36133;42.522;27.456;2023-04-21T07:04:48;100366.88;;;18.53;44.04
50250;BME280;36133;42.522;27.456;2023-04-21T07:07:13;100842.69;;;20.97;44.56
50250;BME280;36133;42.522;27.456;2023-04-21T07:09:39;100490.72;;;17.14;48.60
50250;BME280;36133;42.522;27.456;2023-04-21T07:12:05;100709.56;;;18.35;48.22
50250;BME280;36133;42.522;27.456;2023-04-21T07:14:30;100824.16;;;20.20;46.95
50250;BME280;36133;42.522;27.456;2023-04-21T07:16:56;100648.03;;;19.58;45.48
50250;BME280;36133;42.522;27.456;2023-04-21T07:19:22;100834.53;;;19.73;48.56
50250;BME280;36133;42.522;27.456;2023-04-21T07:21:50;100346.53;;;16.83;47.28
50250;BME280;36133;42.522;27.456;2023-04-21T07:24:19;100639.81;;;17.62;50.01
50250;BME280;36133;42.522;27.456;2023-04-21T07:26:51;100510.75;;;16.36;51.32
50250;BME280;36133;42.522;27.456;2023-04-21T07:29:16;100670.13;;;17.72;50.32
50250;BME280;36133;42.522;27.456;2023-04-21T07:31:42;100265.13;;;15.08;51.35
50250;BME280;36133;42.522;27.456;2023-04-21T07:34:16;100334.72;;;16.24;49.30
50250;BME280;36133;42.522;27.456;2023-04-21T07:36:42;100718.50;;;18.07;50.82
50250;BME280;36133;42.522;27.456;2023-04-21T07:39:10;100349.41;;;16.34;49.00
50250;BME280;36133;42.522;27.456;2023-04-21T07:41:36;100850.31;;;18.02;53.44
50250;BME280;36133;42.522;27.456;2023-04-21T07:44:01;100885.03;;;18.13;55.14
50250;BME280;36133;42.522;27.456;2023-04-21T07:46:27;100694.06;;;16.98;55.66
50250;BME280;36133;42.522;27.456;2023-04-21T07:48:56;100684.41;;;17.14;56.36
50250;BME280;36133;42.522;27.456;2023-04-21T07:51:22;100399.53;;;17.22;52.71
50250;BME280;36133;42.522;27.456;2023-04-21T07:53:48;100583.28;;;19.85;50.11
50250;BME280;36133;42.522;27.456;2023-04-21T07:56:14;100610.50;;;23.48;42.14
50250;BME280;36133;42.522;27.456;2023-04-21T07:58:43;100717.44;;;27.31;36.53
50250;BME280;36133;42.522;27.456;2023-04-21T08:01:09;100541.78;;;26.51;35.78
50250;BME280;36133;42.522;27.456;2023-04-21T08:03:40;100738.09;;;27.20;36.15
50250;BME280;36133;42.522;27.456;2023-04-21T08:06:06;100454.31;;;23.44;38.07
50250;BME280;36133;42.522;27.456;2023-04-21T08:08:31;100710.84;;;24.49;40.15
50250;BME280;36133;42.522;27.456;2023-04-21T08:10:57;100802.13;;;23.96;40.48
50250;BME280;36133;42.522;27.456;2023-04-21T08:13:23;100701.41;;;22.60;40.81
50250;BME280;36133;42.522;27.456;2023-04-21T08:15:53;100449.66;;;24.19;37.06
50250;BME280;36133;42.522;27.456;2023-04-21T08:18:19;100716.53;;;25.82;35.65
50250;BME280;36133;42.522;27.456;2023-04-21T08:20:45;100685.97;;;25.97;35.54
50250;BME280;36133;42.522;27.456;2023-04-21T08:23:15;100870.22;;;27.91;33.43
50250;BME280;36133;42.522;27.456;2023-04-21T08:25:40;100629.16;;;26.10;33.27
50250;BME280;36133;42.522;27.456;2023-04-21T08:28:06;100580.69;;;26.41;32.82
50250;BME280;36133;42.522;27.456;2023-04-21T08:30:35;100854.69;;;29.75;30.33
50250;BME280;36133;42.522;27.456;2023-04-21T08:33:00;100719.22;;;28.57;30.97
50250;BME280;36133;42.522;27.456;2023-04-21T08:35:26;100400.31;;;26.34;31.19
50250;BME280;36133;42.522;27.456;2023-04-21T08:38:00;100437.16;;;27.79;29.54
50250;BME280;36133;42.522;27.456;2023-04-21T08:40:31;100799.44;;;27.32;31.89
50250;BME280;36133;42.522;27.456;2023-04-21T08:42:58;100860.78;;;26.96;32.95
50250;BME280;36133;42.522;27.456;2023-04-21T08:45:29;100393.16;;;20.62;38.95
50250;BME280;36133;42.522;27.456;2023-04-21T08:47:55;100431.28;;;19.49;42.17
50250;BME280;36133;42.522;27.456;2023-04-21T08:50:27;100377.91;;;19.90;41.05
50250;BME280;36133;42.522;27.456;2023-04-21T08:52:56;100688.94;;;22.47;39.75
50250;BME280;36133;42.522;27.456;2023-04-21T08:55:28;100510.47;;;21.14;39.73
50250;BME280;36133;42.522;27.456;2023-04-21T08:57:53;100444.59;;;20.82;39.64
50250;BME280;36133;42.522;27.456;2023-04-21T09:00:35;100314.78;;;18.42;43.16
50250;BME280;36133;42.522;27.456;2023-04-21T09:03:06;100716.81;;;18.06;46.69
50250;BME280;36133;42.522;27.456;2023-04-21T09:05:33;100637.00;;;17.69;46.64
50250;BME280;36133;42.522;27.456;2023-04-21T09:08:20;100726.56;;;17.60;47.48
50250;BME280;36133;42.522;27.456;2023-04-21T09:10:51;100323.78;;;13.97;50.86
50250;BME280;36133;42.522;27.456;2023-04-21T09:13:27;100614.16;;;14.75;53.52
50250;BME280;36133;42.522;27.456;2023-04-21T09:15:53;100306.16;;;12.72;53.84
50250;BME280;36133;42.522;27.456;2023-04-21T09:18:21;100397.53;;;14.26;53.13
50250;BME280;36133;42.522;27.456;2023-04-21T09:20:53;100445.91;;;14.42;53.09
50250;BME280;36133;42.522;27.456;2023-04-21T09:23:39;100400.44;;;14.31;52.89
50250;BME280;36133;42.522;27.456;2023-04-21T09:26:11;100632.31;;;16.37;52.73
50250;BME280;36133;42.522;27.456;2023-04-21T09:28:40;100673.91;;;15.83;54.12
50250;BME280;36133;42.522;27.456;2023-04-21T09:31:21;100440.25;;;14.44;51.75
50250;BME280;36133;42.522;27.456;2023-04-21T09:33:58;100356.75;;;13.69;52.56
50250;BME280;36133;42.522;27.456;2023-04-21T09:36:25;100687.00;;;16.18;51.86
50250;BME280;36133;42.522;27.456;2023-04-21T09:39:00;100843.81;;;16.82;50.20
50250;BME280;36133;42.522;27.456;2023-04-21T09:41:31;100738.06;;;17.32;47.62
50250;BME280;36133;42.522;27.456;2023-04-21T09:43:57;100927.38;;;18.88;48.14
50250;BME280;36133;42.522;27.456;2023-04-21T09:46:28;100271.47;;;15.50;47.01
50250;BME280;36133;42.522;27.456;2023-04-21T09:48:54;100504.63;;;17.48;46.73
50250;BME280;36133;42.522;27.456;2023-04-21T09:51:23;100512.72;;;16.48;45.50
50250;BME280;36133;42.522;27.456;2023-04-21T09:53:53;100668.59;;;18.23;45.47
50250;BME280;36133;42.522;27.456;2023-04-21T09:56:24;100717.91;;;17.63;45.42
50250;BME280;36133;42.522;27.456;2023-04-21T09:58:54;100919.03;;;19.41;44.49
50250;BME280;36133;42.522;27.456;2023-04-21T10:01:26;100861.97;;;19.61;43.50
50250;BME280;36133;42.522;27.456;2023-04-21T10:03:54;100795.97;;;19.75;40.43
50250;BME280;36133;42.522;27.456;2023-04-21T10:06:21;100926.97;;;21.19;39.17
50250;BME280;36133;42.522;27.456;2023-04-21T10:08:53;100746.38;;;20.99;39.10
50250;BME280;36133;42.522;27.456;2023-04-21T10:11:22;100707.88;;;20.94;39.30
50250;BME280;36133;42.522;27.456;2023-04-21T10:13:48;100647.53;;;22.17;35.80
50250;BME280;36133;42.522;27.456;2023-04-21T10:16:16;100873.06;;;24.47;34.39
50250;BME280;36133;42.522;27.456;2023-04-21T10:18:46;100550.97;;;21.29;34.05
50250;BME280;36133;42.522;27.456;2023-04-21T10:21:17;100555.06;;;22.68;32.10
50250;BME280;36133;42.522;27.456;2023-04-21T10:23:47;100741.59;;;25.02;30.32
50250;BME280;36133;42.522;27.456;2023-04-21T10:26:20;100887.72;;;24.63;31.69
50250;BME280;36133;42.522;27.456;2023-04-21T10:29:00;100609.94;;;23.10;32.18
50250;BME280;36133;42.522;27.456;2023-04-21T10:31:30;100896.25;;;25.02;31.78
50250;BME280;36133;42.522;27.456;2023-04-21T10:39:30;100537.63;;;22.37;31.34
50250;BME280;36133;42.522;27.456;2023-04-21T10:42:27;100622.91;;;23.35;31.08
50250;BME280;36133;42.522;27.456;2023-04-21T10:49:57;100741.19;;;20.25;36.44
50250;BME280;36133;42.522;27.456;2023-04-21T10:52:32;100424.41;;;18.01;37.02
50250;BME280;36133;42.522;27.456;2023-04-21T10:55:28;100903.97;;;20.86;36.66
50250;BME280;36133;42.522;27.456;2023-04-21T10:57:54;100762.44;;;21.12;36.04
50250;BME280;36133;42.522;27.456;2023-04-21T11:00:22;100727.97;;;19.43;37.52
50250;BME280;36133;42.522;27.456;2023-04-21T11:03:02;100761.63;;;21.12;36.42
50250;BME280;36133;42.522;27.456;2023-04-21T11:05:39;100774.72;;;19.82;39.23
50250;BME280;36133;42.522;27.456;2023-04-21T11:08:13;100901.13;;;21.80;35.68
50250;BME280;36133;42.522;27.456;2023-04-21T11:10:59;100804.16;;;20.92;38.57
50250;BME280;36133;42.522;27.456;2023-04-21T11:13:26;100710.13;;;20.19;38.12
50250;BME280;36133;42.522;27.456;2023-04-21T11:16:04;100446.94;;;20.14;35.91
50250;BME280;36133;42.522;27.456;2023-04-21T11:18:43;100724.09;;;23.81;32.52
50250;BME280;36133;42.522;27.456;2023-04-21T11:21:16;100453.53;;;20.67;33.36
50250;BME280;36133;42.522;27.456;2023-04-21T11:23:55;100753.84;;;24.65;30.53
50250;BME280;36133;42.522;27.456;2023-04-21T11:26:35;100903.44;;;24.72;31.25
50250;BME280;36133;42.522;27.456;2023-04-21T11:29:12;100860.34;;;24.71;30.95
50250;BME280;36133;42.522;27.456;2023-04-21T11:31:43;100471.72;;;21.43;32.56
50250;BME280;36133;42.522;27.456;2023-04-21T11:34:10;100724.75;;;27.22;27.54
50250;BME280;36133;42.522;27.456;2023-04-21T11:36:40;100788.56;;;32.10;21.84
50250;BME280;36133;42.522;27.456;2023-04-21T11:39:11;100460.91;;;30.09;21.52
50250;BME280;36133;42.522;27.456;2023-04-21T11:41:39;100454.25;;;26.55;24.93
50250;BME280;36133;42.522;27.456;2023-04-21T11:44:31;100875.44;;;30.95;23.15
50250;BME280;36133;42.522;27.456;2023-04-21T11:47:46;100734.13;;;33.69;20.42
50250;BME280;36133;42.522;27.456;2023-04-21T11:50:06;100408.69;;;30.14;21.38
50250;BME280;36133;42.522;27.456;2023-04-21T11:55:45;100658.84;;;30.78;22.31
50250;BME280;36133;42.522;27.456;2023-04-21T11:58:10;100584.47;;;27.91;25.54
50250;BME280;36133;42.522;27.456;2023-04-21T12:00:43;100405.53;;;25.26;27.43
50250;BME280;36133;42.522;27.456;2023-04-21T12:03:10;100699.28;;;25.95;27.97
50250;BME280;36133;42.522;27.456;2023-04-21T12:05:37;100636.91;;;23.08;30.98
50250;BME280;36133;42.522;27.456;2023-04-21T12:08:03;100696.69;;;27.98;25.97
50250;BME280;36133;42.522;27.456;2023-04-21T12:10:30;100584.91;;;27.33;25.55
50250;BME280;36133;42.522;27.456;2023-04-21T12:12:56;100724.19;;;30.72;23.42
50250;BME280;36133;42.522;27.456;2023-04-21T12:15:22;100820.69;;;32.68;21.48
50250;BME280;36133;42.522;27.456;2023-04-21T12:17:49;100427.81;;;31.66;20.37
50250;BME280;36133;42.522;27.456;2023-04-21T12:20:21;100439.25;;;31.82;19.98
50250;BME280;36133;42.522;27.456;2023-04-21T12:22:47;100425.09;;;29.36;21.98
50250;BME280;36133;42.522;27.456;2023-04-21T12:25:15;100558.91;;;34.13;18.81
50250;BME280;36133;42.522;27.456;2023-04-21T12:27:51;100858.25;;;35.14;19.56
50250;BME280;36133;42.522;27.456;2023-04-21T12:30:23;100649.00;;;27.45;26.18
50250;BME280;36133;42.522;27.456;2023-04-21T12:32:52;100684.22;;;27.44;25.32
50250;BME280;36133;42.522;27.456;2023-04-21T12:35:38;100672.59;;;29.59;23.34
50250;BME280;36133;42.522;27.456;2023-04-21T12:38:03;100423.78;;;28.44;23.01
50250;BME280;36133;42.522;27.456;2023-04-21T12:40:29;100441.41;;;28.40;22.91
50250;BME280;36133;42.522;27.456;2023-04-21T12:42:55;100738.34;;;33.33;20.05
50250;BME280;36133;42.522;27.456;2023-04-21T12:48:33;100589.19;;;35.37;17.89
50250;BME280;36133;42.522;27.456;2023-04-21T12:51:02;100606.50;;;33.14;19.11
50250;BME280;36133;42.522;27.456;2023-04-21T12:53:28;100407.06;;;30.39;20.66
50250;BME280;36133;42.522;27.456;2023-04-21T12:55:54;100696.34;;;31.81;20.88
50250;BME280;36133;42.522;27.456;2023-04-21T12:58:22;100875.00;;;28.74;25.17
50250;BME280;36133;42.522;27.456;2023-04-21T13:00:48;100431.78;;;24.06;27.12
50250;BME280;36133;42.522;27.456;2023-04-21T13:03:13;100694.84;;;24.41;28.89